sensor_id;sensor_type;location;lat;lon;timestamp;pressure;altitude;pressure_sealevel;temperature;humidity
47430;BME280;33181;49.246;7.372;2023-01-31T00:00:47;99860.56;;;2.71;100.00
47430;BME280;33181;49.246;7.372;2023-01-31T00:03:13;99859.84;;;2.66;100.00
47430;BME280;33181;49.246;7.372;2023-01-31T00:05:39;99857.25;;;2.66;100.00
47430;BME280;33181;49.246;7.372;2023-01-31T00:08:05;99856.41;;;2.65;100.00
47430;BME280;33181;49.246;7.372;2023-01-31T00:10:30;99867.56;;;2.67;100.00
47430;BME280;33181;49.246;7.372;2023-01-31T00:12:56;99855.59;;;2.63;100.00
47430;BME280;33181;49.246;7.372;2023-01-31T00:15:22;99861.69;;;2.62;100.00
47430;BME280;33181;49.246;7.372;2023-01-31T00:17:48;99863.47;;;2.60;100.00
47430;BME280;33181;49.246;7.372;2023-01-31T00:20:14;99851.41;;;2.59;100.00
47430;BME280;33181;49.246;7.372;2023-01-31T00:22:40;99837.50;;;2.62;100.00
47430;BME280;33181;49.246;7.372;2023-01-31T00:25:06;99840.97;;;2.61;100.00
47430;BME280;33181;49.246;7.372;2023-01-31T00:27:33;99836.69;;;2.60;100.00
47430;BME280;33181;49.246;7.372;2023-01-31T00:29:58;99830.59;;;2.61;100.00
47430;BME280;33181;49.246;7.372;2023-01-31T00:32:24;99826.34;;;2.58;100.00
47430;BME280;33181;49.246;7.372;2023-01-31T00:34:52;99832.31;;;2.62;100.00
47430;BME280;33181;49.246;7.372;2023-01-31T00:37:19;99832.31;;;2.62;100.00
47430;BME280;33181;49.246;7.372;2023-01-31T00:39:45;99835.78;;;2.61;100.00
47430;BME280;33181;49.246;7.372;2023-01-31T00:42:12;99839.28;;;2.60;100.00
47430;BME280;33181;49.246;7.372;2023-01-31T00:44:37;99843.56;;;2.61;100.00
47430;BME280;33181;49.246;7.372;2023-01-31T00:47:03;99837.44;;;2.63;100.00
47430;BME280;33181;49.246;7.372;2023-01-31T00:49:29;99839.19;;;2.63;100.00
47430;BME280;33181;49.246;7.372;2023-01-31T00:51:55;99849.50;;;2.64;100.00
47430;BME280;33181;49.246;7.372;2023-01-31T00:54:21;99835.59;;;2.67;100.00
47430;BME280;33181;49.246;7.372;2023-01-31T00:56:47;99835.50;;;2.70;100.00
47430;BME280;33181;49.246;7.372;2023-01-31T00:59:13;99835.50;;;2.70;100.00
47430;BME280;33181;49.246;7.372;2023-01-31T01:01:38;99830.50;;;2.64;100.00
47430;BME280;33181;49.246;7.372;2023-01-31T01:04:04;99826.13;;;2.66;100.00
47430;BME280;33181;49.246;7.372;2023-01-31T01:06:30;99833.75;;;2.70;100.00
47430;BME280;33181;49.246;7.372;2023-01-31T01:08:57;99839.84;;;2.69;100.00
47430;BME280;33181;49.246;7.372;2023-01-31T01:11:30;99837.97;;;2.74;100.00
47430;BME280;33181;49.246;7.372;2023-01-31T01:13:57;99834.47;;;2.75;100.00
47430;BME280;33181;49.246;7.372;2023-01-31T01:16:30;99837.00;;;2.77;100.00
47430;BME280;33181;49.246;7.372;2023-01-31T01:18:56;99842.16;;;2.78;100.00
47430;BME280;33181;49.246;7.372;2023-01-31T01:21:27;99850.88;;;2.76;100.00
47430;BME280;33181;49.246;7.372;2023-01-31T01:23:56;99861.94;;;2.83;100.00
47430;BME280;33181;49.246;7.372;2023-01-31T01:26:26;99851.63;;;2.81;100.00
47430;BME280;33181;49.246;7.372;2023-01-31T01:28:54;99853.44;;;2.77;100.00
47430;BME280;33181;49.246;7.372;2023-01-31T01:31:20;99859.53;;;2.76;100.00
47430;BME280;33181;49.246;7.372;2023-01-31T01:33:48;99857.09;;;2.70;100.00
47430;BME280;33181;49.246;7.372;2023-01-31T01:36:15;99865.72;;;2.71;100.00
47430;BME280;33181;49.246;7.372;2023-01-31T01:38:44;99878.94;;;2.63;100.00
47430;BME280;33181;49.246;7.372;2023-01-31T01:41:11;99878.72;;;2.71;100.00
47430;BME280;33181;49.246;7.372;2023-01-31T01:43:51;99874.31;;;2.74;100.00
47430;BME280;33181;49.246;7.372;2023-01-31T01:46:37;99870.75;;;2.77;100.00
47430;BME280;33181;49.246;7.372;2023-01-31T01:49:27;99875.09;;;2.76;100.00
47430;BME280;33181;49.246;7.372;2023-01-31T01:51:58;99875.28;;;2.70;100.00
47430;BME280;33181;49.246;7.372;2023-01-31T01:54:32;99876.19;;;2.68;100.00
47430;BME280;33181;49.246;7.372;2023-01-31T01:57:02;99877.94;;;2.69;100.00
47430;BME280;33181;49.246;7.372;2023-01-31T01:59:37;99880.53;;;2.67;100.00
47430;BME280;33181;49.246;7.372;2023-01-31T02:02:06;99892.66;;;2.67;100.00
47430;BME280;33181;49.246;7.372;2023-01-31T02:04:35;99890.06;;;2.67;100.00
47430;BME280;33181;49.246;7.372;2023-01-31T02:07:02;99891.66;;;2.72;100.00
47430;BME280;33181;49.246;7.372;2023-01-31T02:10:06;99877.84;;;2.72;100.00
47430;BME280;33181;49.246;7.372;2023-01-31T02:12:37;99891.69;;;2.71;100.00
47430;BME280;33181;49.246;7.372;2023-01-31T02:15:04;99885.78;;;2.66;100.00
47430;BME280;33181;49.246;7.372;2023-01-31T02:17:32;99884.06;;;2.65;100.00
47430;BME280;33181;49.246;7.372;2023-01-31T02:20:43;99885.97;;;2.60;100.00
47430;BME280;33181;49.246;7.372;2023-01-31T02:33:05;99874.13;;;2.51;100.00
47430;BME280;33181;49.246;7.372;2023-01-31T02:35:54;99882.31;;;2.37;100.00
47430;BME280;33181;49.246;7.372;2023-01-31T02:39:14;99874.72;;;2.31;100.00
47430;BME280;33181;49.246;7.372;2023-01-31T02:41:55;99867.78;;;2.31;100.00
47430;BME280;33181;49.246;7.372;2023-01-31T02:44:34;99861.59;;;2.36;100.00
47430;BME280;33181;49.246;7.372;2023-01-31T02:47:51;99866.84;;;2.34;100.00
47430;BME280;33181;49.246;7.372;2023-01-31T02:53:24;99858.34;;;2.29;100.00
47430;BME280;33181;49.246;7.372;2023-01-31T02:59:01;99862.91;;;2.21;100.00
47430;BME280;33181;49.246;7.372;2023-01-31T03:01:35;99859.44;;;2.20;100.00
47430;BME280;33181;49.246;7.372;2023-01-31T03:04:08;99854.53;;;2.11;100.00
47430;BME280;33181;49.246;7.372;2023-01-31T03:09:16;99856.25;;;2.12;100.00
47430;BME280;33181;49.246;7.372;2023-01-31T03:15:10;99862.31;;;2.11;100.00
47430;BME280;33181;49.246;7.372;2023-01-31T03:18:01;99854.59;;;2.08;100.00
47430;BME280;33181;49.246;7.372;2023-01-31T03:21:02;99848.72;;;2.03;100.00
47430;BME280;33181;49.246;7.372;2023-01-31T03:23:31;99856.53;;;2.01;100.00
47430;BME280;33181;49.246;7.372;2023-01-31T03:26:00;99860.75;;;2.05;100.00
47430;BME280;33181;49.246;7.372;2023-01-31T03:28:32;99853.81;;;2.06;100.00
47430;BME280;33181;49.246;7.372;2023-01-31T03:31:19;99853.09;;;2.01;100.00
47430;BME280;33181;49.246;7.372;2023-01-31T03:34:08;99866.97;;;1.98;100.00
47430;BME280;33181;49.246;7.372;2023-01-31T03:45:35;99867.38;;;1.84;100.00
47430;BME280;33181;49.246;7.372;2023-01-31T03:48:04;99872.38;;;1.91;100.00
47430;BME280;33181;49.246;7.372;2023-01-31T03:50:46;99872.31;;;1.92;100.00
47430;BME280;33181;49.246;7.372;2023-01-31T03:59:03;99877.81;;;1.81;100.00
47430;BME280;33181;49.246;7.372;2023-01-31T04:01:33;99869.19;;;1.81;100.00
47430;BME280;33181;49.246;7.372;2023-01-31T04:04:09;99861.53;;;1.76;100.00
47430;BME280;33181;49.246;7.372;2023-01-31T04:06:35;99864.03;;;1.79;100.00
47430;BME280;33181;49.246;7.372;2023-01-31T04:09:02;99872.63;;;1.81;100.00
47430;BME280;33181;49.246;7.372;2023-01-31T04:11:29;99872.63;;;1.81;100.00
47430;BME280;33181;49.246;7.372;2023-01-31T04:14:00;99868.97;;;1.89;100.00
47430;BME280;33181;49.246;7.372;2023-01-31T04:16:25;99868.81;;;1.95;100.00
47430;BME280;33181;49.246;7.372;2023-01-31T04:18:51;99873.13;;;1.94;100.00
47430;BME280;33181;49.246;7.372;2023-01-31T04:21:17;99872.22;;;1.97;100.00
47430;BME280;33181;49.246;7.372;2023-01-31T04:23:43;99868.72;;;1.98;100.00
47430;BME280;33181;49.246;7.372;2023-01-31T04:26:08;99876.50;;;1.98;100.00
47430;BME280;33181;49.246;7.372;2023-01-31T04:28:34;99876.75;;;1.89;100.00
47430;BME280;33181;49.246;7.372;2023-01-31T04:31:00;99866.44;;;1.87;100.00
47430;BME280;33181;49.246;7.372;2023-01-31T04:33:25;99868.00;;;1.93;100.00
47430;BME280;33181;49.246;7.372;2023-01-31T04:35:51;99863.00;;;1.87;100.00
47430;BME280;33181;49.246;7.372;2023-01-31T04:38:17;99860.25;;;1.93;100.00
47430;BME280;33181;49.246;7.372;2023-01-31T04:40:43;99861.25;;;1.87;100.00
47430;BME280;33181;49.246;7.372;2023-01-31T04:43:09;99866.63;;;1.79;100.00
47430;BME280;33181;49.246;7.372;2023-01-31T04:45:34;99870.00;;;1.83;100.00
47430;BME280;33181;49.246;7.372;2023-01-31T04:48:00;99872.38;;;1.91;100.00
47430;BME280;33181;49.246;7.372;2023-01-31T04:50:26;99870.72;;;1.88;100.00
47430;BME280;33181;49.246;7.372;2023-01-31T04:52:51;99872.47;;;1.88;100.00
47430;BME280;33181;49.246;7.372;2023-01-31T04:55:18;99869.06;;;1.85;100.00
47430;BME280;33181;49.246;7.372;2023-01-31T04:57:43;99862.25;;;1.83;100.00
47430;BME280;33181;49.246;7.372;2023-01-31T05:00:10;99862.09;;;1.88;100.00
47430;BME280;33181;49.246;7.372;2023-01-31T05:02:36;99856.84;;;1.89;100.00
47430;BME280;33181;49.246;7.372;2023-01-31T05:05:04;99857.16;;;1.78;100.00
47430;BME280;33181;49.246;7.372;2023-01-31T05:07:30;99852.16;;;1.72;100.00
47430;BME280;33181;49.246;7.372;2023-01-31T05:09:55;99853.13;;;1.68;100.00
47430;BME280;33181;49.246;7.372;2023-01-31T05:12:21;99853.16;;;1.67;100.00
47430;BME280;33181;49.246;7.372;2023-01-31T05:14:47;99855.63;;;1.71;100.00
47430;BME280;33181;49.246;7.372;2023-01-31T05:17:13;99849.53;;;1.74;100.00
47430;BME280;33181;49.246;7.372;2023-01-31T05:19:38;99851.31;;;1.72;100.00
47430;BME280;33181;49.246;7.372;2023-01-31T05:22:04;99855.59;;;1.73;100.00
47430;BME280;33181;49.246;7.372;2023-01-31T05:24:32;99861.66;;;1.72;100.00
47430;BME280;33181;49.246;7.372;2023-01-31T05:26:59;99855.41;;;1.80;100.00
47430;BME280;33181;49.246;7.372;2023-01-31T05:29:28;99849.56;;;1.72;100.00
47430;BME280;33181;49.246;7.372;2023-01-31T05:31:57;99859.09;;;1.70;100.00
47430;BME280;33181;49.246;7.372;2023-01-31T05:34:24;99862.41;;;1.77;100.00
47430;BME280;33181;49.246;7.372;2023-01-31T05:36:54;99855.47;;;1.77;100.00
47430;BME280;33181;49.246;7.372;2023-01-31T05:39:20;99859.59;;;1.84;100.00
47430;BME280;33181;49.246;7.372;2023-01-31T05:41:46;99861.19;;;1.89;100.00
47430;BME280;33181;49.246;7.372;2023-01-31T05:44:13;99868.94;;;1.90;100.00
47430;BME280;33181;49.246;7.372;2023-01-31T05:46:40;99870.53;;;1.96;100.00
47430;BME280;33181;49.246;7.372;2023-01-31T05:49:07;99869.53;;;2.00;100.00
47430;BME280;33181;49.246;7.372;2023-01-31T05:51:33;99873.03;;;1.99;100.00
47430;BME280;33181;49.246;7.372;2023-01-31T05:53:58;99875.63;;;1.99;100.00
47430;BME280;33181;49.246;7.372;2023-01-31T05:56:25;99883.31;;;2.02;100.00
47430;BME280;33181;49.246;7.372;2023-01-31T05:58:50;99884.31;;;1.96;100.00
47430;BME280;33181;49.246;7.372;2023-01-31T06:01:23;99887.91;;;1.91;100.00
47430;BME280;33181;49.246;7.372;2023-01-31T06:03:49;99876.75;;;1.89;100.00
47430;BME280;33181;49.246;7.372;2023-01-31T06:06:15;99880.97;;;1.93;100.00
47430;BME280;33181;49.246;7.372;2023-01-31T06:08:41;99873.28;;;1.90;100.00
47430;BME280;33181;49.246;7.372;2023-01-31T06:11:09;99873.22;;;1.91;100.00
47430;BME280;33181;49.246;7.372;2023-01-31T06:13:37;99887.84;;;1.94;100.00
47430;BME280;33181;49.246;7.372;2023-01-31T06:16:03;99880.97;;;1.93;100.00
47430;BME280;33181;49.246;7.372;2023-01-31T06:18:30;99879.09;;;1.98;100.00
47430;BME280;33181;49.246;7.372;2023-01-31T06:20:56;99881.91;;;1.90;100.00
47430;BME280;33181;49.246;7.372;2023-01-31T06:23:22;99887.84;;;1.94;100.00
47430;BME280;33181;49.246;7.372;2023-01-31T06:25:50;99874.06;;;1.92;100.00
47430;BME280;33181;49.246;7.372;2023-01-31T06:28:17;99876.56;;;1.96;100.00
47430;BME280;33181;49.246;7.372;2023-01-31T06:30:43;99870.69;;;1.90;100.00
47430;BME280;33181;49.246;7.372;2023-01-31T06:33:09;99873.47;;;1.82;100.00
47430;BME280;33181;49.246;7.372;2023-01-31T06:35:35;99861.41;;;1.81;100.00
47430;BME280;33181;49.246;7.372;2023-01-31T06:38:01;99857.06;;;1.83;100.00
47430;BME280;33181;49.246;7.372;2023-01-31T06:40:27;99852.56;;;1.90;100.00
47430;BME280;33181;49.246;7.372;2023-01-31T06:42:53;99847.31;;;1.91;100.00
47430;BME280;33181;49.246;7.372;2023-01-31T06:45:19;99855.66;;;2.02;100.00
47430;BME280;33181;49.246;7.372;2023-01-31T06:47:45;99861.75;;;2.00;100.00
47430;BME280;33181;49.246;7.372;2023-01-31T06:50:11;99865.19;;;2.02;100.00
47430;BME280;33181;49.246;7.372;2023-01-31T06:52:39;99871.06;;;2.07;100.00
47430;BME280;33181;49.246;7.372;2023-01-31T06:55:06;99867.53;;;2.09;100.00
47430;BME280;33181;49.246;7.372;2023-01-31T06:57:32;99871.13;;;2.05;100.00
47430;BME280;33181;49.246;7.372;2023-01-31T06:59:57;99875.16;;;2.14;100.00
47430;BME280;33181;49.246;7.372;2023-01-31T07:02:23;99878.66;;;2.13;100.00
47430;BME280;33181;49.246;7.372;2023-01-31T07:04:50;99871.63;;;2.18;100.00
47430;BME280;33181;49.246;7.372;2023-01-31T07:07:16;99875.66;;;2.27;100.00
47430;BME280;33181;49.246;7.372;2023-01-31T07:09:42;99875.66;;;2.28;100.00
47430;BME280;33181;49.246;7.372;2023-01-31T07:12:08;99875.59;;;2.30;100.00
47430;BME280;33181;49.246;7.372;2023-01-31T07:14:34;99880.00;;;2.26;100.00
47430;BME280;33181;49.246;7.372;2023-01-31T07:17:00;99873.91;;;2.29;100.00
47430;BME280;33181;49.246;7.372;2023-01-31T07:19:26;99878.09;;;2.33;100.00
47430;BME280;33181;49.246;7.372;2023-01-31T07:21:51;99878.97;;;2.34;100.00
47430;BME280;33181;49.246;7.372;2023-01-31T07:24:17;99876.47;;;2.30;100.00
47430;BME280;33181;49.246;7.372;2023-01-31T07:26:43;99879.72;;;2.37;100.00
47430;BME280;33181;49.246;7.372;2023-01-31T07:29:09;99888.19;;;2.42;100.00
47430;BME280;33181;49.246;7.372;2023-01-31T07:31:37;99882.91;;;2.47;100.00
47430;BME280;33181;49.246;7.372;2023-01-31T07:34:02;99886.97;;;2.55;100.00
47430;BME280;33181;49.246;7.372;2023-01-31T07:36:28;99876.59;;;2.55;100.00
47430;BME280;33181;49.246;7.372;2023-01-31T07:38:56;99889.94;;;2.42;100.00
47430;BME280;33181;49.246;7.372;2023-01-31T07:41:23;99887.06;;;2.52;100.00
47430;BME280;33181;49.246;7.372;2023-01-31T07:43:49;99884.22;;;2.60;100.00
47430;BME280;33181;49.246;7.372;2023-01-31T07:46:16;99877.25;;;2.62;100.00
47430;BME280;33181;49.246;7.372;2023-01-31T07:48:42;99872.16;;;2.59;100.00
47430;BME280;33181;49.246;7.372;2023-01-31T07:51:08;99875.59;;;2.60;100.00
47430;BME280;33181;49.246;7.372;2023-01-31T07:53:37;99866.97;;;2.59;100.00
47430;BME280;33181;49.246;7.372;2023-01-31T07:56:24;99856.59;;;2.59;100.00
47430;BME280;33181;49.246;7.372;2023-01-31T07:58:50;99868.41;;;2.68;100.00
47430;BME280;33181;49.246;7.372;2023-01-31T08:01:22;99869.97;;;2.75;100.00
47430;BME280;33181;49.246;7.372;2023-01-31T08:04:09;99868.25;;;2.74;100.00
47430;BME280;33181;49.246;7.372;2023-01-31T08:06:36;99883.13;;;2.67;100.00
47430;BME280;33181;49.246;7.372;2023-01-31T08:09:03;99890.31;;;2.59;100.00
47430;BME280;33181;49.246;7.372;2023-01-31T08:11:29;99880.63;;;2.64;100.00
47430;BME280;33181;49.246;7.372;2023-01-31T08:13:55;99879.59;;;2.71;100.00
47430;BME280;33181;49.246;7.372;2023-01-31T08:16:21;99884.81;;;2.70;100.00
47430;BME280;33181;49.246;7.372;2023-01-31T08:18:47;99891.69;;;2.71;100.00
47430;BME280;33181;49.246;7.372;2023-01-31T08:21:14;99886.53;;;2.69;100.00
47430;BME280;33181;49.246;7.372;2023-01-31T08:23:41;99885.72;;;2.67;100.00
47430;BME280;33181;49.246;7.372;2023-01-31T08:26:14;99870.00;;;2.73;100.00
47430;BME280;33181;49.246;7.372;2023-01-31T08:28:40;99875.09;;;2.76;100.00
47430;BME280;33181;49.246;7.372;2023-01-31T08:31:17;99871.63;;;2.77;100.00
47430;BME280;33181;49.246;7.372;2023-01-31T08:33:44;99885.34;;;2.81;100.00
47430;BME280;33181;49.246;7.372;2023-01-31T08:36:13;99885.19;;;2.86;100.00
47430;BME280;33181;49.246;7.372;2023-01-31T08:38:40;99896.47;;;2.85;100.00
47430;BME280;33181;49.246;7.372;2023-01-31T08:41:08;99900.56;;;2.92;100.00
47430;BME280;33181;49.246;7.372;2023-01-31T08:43:34;99899.72;;;2.91;100.00
47430;BME280;33181;49.246;7.372;2023-01-31T08:46:03;99907.34;;;2.96;99.86
47430;BME280;33181;49.246;7.372;2023-01-31T08:48:36;99911.78;;;2.92;100.00
47430;BME280;33181;49.246;7.372;2023-01-31T08:51:05;99907.44;;;2.93;99.77
47430;BME280;33181;49.246;7.372;2023-01-31T08:53:32;99899.72;;;2.91;99.32
47430;BME280;33181;49.246;7.372;2023-01-31T08:56:00;99905.84;;;2.89;100.00
47430;BME280;33181;49.246;7.372;2023-01-31T08:58:26;99897.03;;;2.94;100.00
47430;BME280;33181;49.246;7.372;2023-01-31T09:00:52;99903.88;;;2.97;100.00
47430;BME280;33181;49.246;7.372;2023-01-31T09:03:18;99901.19;;;3.00;99.18
47430;BME280;33181;49.246;7.372;2023-01-31T09:05:44;99891.03;;;2.92;99.86
47430;BME280;33181;49.246;7.372;2023-01-31T09:08:11;99895.47;;;2.89;100.00
47430;BME280;33181;49.246;7.372;2023-01-31T09:10:37;99888.03;;;2.78;100.00
47430;BME280;33181;49.246;7.372;2023-01-31T09:13:03;99888.63;;;2.86;100.00
47430;BME280;33181;49.246;7.372;2023-01-31T09:15:29;99884.25;;;2.88;100.00
47430;BME280;33181;49.246;7.372;2023-01-31T09:17:55;99888.59;;;2.88;100.00
47430;BME280;33181;49.246;7.372;2023-01-31T09:20:20;99883.06;;;2.98;100.00
47430;BME280;33181;49.246;7.372;2023-01-31T09:22:46;99891.41;;;3.08;100.00
47430;BME280;33181;49.246;7.372;2023-01-31T09:25:12;99893.88;;;3.13;99.93
47430;BME280;33181;49.246;7.372;2023-01-31T09:27:38;99894.81;;;3.10;99.63
47430;BME280;33181;49.246;7.372;2023-01-31T09:30:09;99897.34;;;3.12;98.51
47430;BME280;33181;49.246;7.372;2023-01-31T09:32:35;99894.25;;;3.00;99.00
47430;BME280;33181;49.246;7.372;2023-01-31T09:35:02;99898.50;;;3.03;99.00
47430;BME280;33181;49.246;7.372;2023-01-31T09:37:29;99903.59;;;3.06;100.00
47430;BME280;33181;49.246;7.372;2023-01-31T09:39:56;99893.31;;;3.03;99.88
47430;BME280;33181;49.246;7.372;2023-01-31T09:42:37;99906.28;;;3.03;100.00
47430;BME280;33181;49.246;7.372;2023-01-31T09:45:11;99899.91;;;3.13;100.00
47430;BME280;33181;49.246;7.372;2023-01-31T09:47:50;99899.06;;;3.13;98.78
47430;BME280;33181;49.246;7.372;2023-01-31T09:52:52;99897.31;;;3.13;99.14
47430;BME280;33181;49.246;7.372;2023-01-31T09:55:28;99905.00;;;3.16;99.21
47430;BME280;33181;49.246;7.372;2023-01-31T10:07:27;99908.59;;;3.12;98.77
47430;BME280;33181;49.246;7.372;2023-01-31T10:10:02;99909.25;;;3.19;98.89
47430;BME280;33181;49.246;7.372;2023-01-31T10:12:47;99908.09;;;3.28;98.60
47430;BME280;33181;49.246;7.372;2023-01-31T10:15:53;99906.28;;;3.30;98.08
47430;BME280;33181;49.246;7.372;2023-01-31T10:18:45;99907.09;;;3.32;97.78
47430;BME280;33181;49.246;7.372;2023-01-31T10:21:17;99902.66;;;3.35;97.74
47430;BME280;33181;49.246;7.372;2023-01-31T10:24:08;99895.00;;;3.31;97.27
47430;BME280;33181;49.246;7.372;2023-01-31T10:26:40;99890.63;;;3.33;97.69
47430;BME280;33181;49.246;7.372;2023-01-31T10:29:40;99882.84;;;3.33;98.15
47430;BME280;33181;49.246;7.372;2023-01-31T10:35:20;99866.88;;;3.43;97.25
47430;BME280;33181;49.246;7.372;2023-01-31T10:38:00;99873.63;;;3.49;96.02
47430;BME280;33181;49.246;7.372;2023-01-31T10:40:36;99867.66;;;3.47;96.65
47430;BME280;33181;49.246;7.372;2023-01-31T10:43:32;99874.44;;;3.51;95.83
47430;BME280;33181;49.246;7.372;2023-01-31T10:45:59;99862.00;;;3.59;95.79
47430;BME280;33181;49.246;7.372;2023-01-31T10:48:28;99860.84;;;3.68;94.83
47430;BME280;33181;49.246;7.372;2023-01-31T10:58:38;99860.50;;;3.79;94.31
47430;BME280;33181;49.246;7.372;2023-01-31T11:01:05;99846.50;;;3.83;93.61
47430;BME280;33181;49.246;7.372;2023-01-31T11:03:33;99832.56;;;3.85;93.72
47430;BME280;33181;49.246;7.372;2023-01-31T11:05:59;99825.38;;;3.92;94.18
47430;BME280;33181;49.246;7.372;2023-01-31T11:08:47;99821.44;;;4.05;92.85
47430;BME280;33181;49.246;7.372;2023-01-31T11:11:20;99823.56;;;4.17;92.81
47430;BME280;33181;49.246;7.372;2023-01-31T11:14:09;99805.59;;;4.11;91.85
47430;BME280;33181;49.246;7.372;2023-01-31T11:16:41;99800.28;;;4.14;92.96
47430;BME280;33181;49.246;7.372;2023-01-31T11:19:31;99802.81;;;4.16;93.08
47430;BME280;33181;49.246;7.372;2023-01-31T11:21:58;99792.16;;;4.24;91.61
47430;BME280;33181;49.246;7.372;2023-01-31T11:24:28;99778.94;;;4.28;91.83
47430;BME280;33181;49.246;7.372;2023-01-31T11:27:08;99777.75;;;4.37;91.73
47430;BME280;33181;49.246;7.372;2023-01-31T11:29:46;99781.28;;;4.36;91.93
47430;BME280;33181;49.246;7.372;2023-01-31T11:32:23;99771.47;;;4.43;91.26
47430;BME280;33181;49.246;7.372;2023-01-31T11:35:05;99761.34;;;4.35;91.93
47430;BME280;33181;49.246;7.372;2023-01-31T11:37:32;99752.19;;;4.48;90.80
47430;BME280;33181;49.246;7.372;2023-01-31T11:43:04;99775.53;;;4.50;90.79
47430;BME280;33181;49.246;7.372;2023-01-31T11:45:33;99781.56;;;4.50;90.73
47430;BME280;33181;49.246;7.372;2023-01-31T11:48:26;99777.34;;;4.48;90.81
47430;BME280;33181;49.246;7.372;2023-01-31T11:51:02;99773.53;;;4.56;90.68
47430;BME280;33181;49.246;7.372;2023-01-31T11:53:49;99784.78;;;4.57;91.35
47430;BME280;33181;49.246;7.372;2023-01-31T11:56:28;99788.19;;;4.59;90.03
47430;BME280;33181;49.246;7.372;2023-01-31T11:59:02;99765.13;;;4.50;89.70
47430;BME280;33181;49.246;7.372;2023-01-31T12:01:43;99761.34;;;4.35;90.29
47430;BME280;33181;49.246;7.372;2023-01-31T12:04:17;99758.22;;;4.27;90.85
47430;BME280;33181;49.246;7.372;2023-01-31T12:06:59;99758.94;;;4.30;90.82
47430;BME280;33181;49.246;7.372;2023-01-31T12:09:30;99752.53;;;4.39;90.76
47430;BME280;33181;49.246;7.372;2023-01-31T12:12:26;99745.59;;;4.39;90.98
47430;BME280;33181;49.246;7.372;2023-01-31T12:14:58;99745.50;;;4.41;91.42
47430;BME280;33181;49.246;7.372;2023-01-31T12:17:35;99745.47;;;4.43;91.17
47430;BME280;33181;49.246;7.372;2023-01-31T12:22:59;99717.25;;;4.32;91.71
47430;BME280;33181;49.246;7.372;2023-01-31T12:28:49;99709.53;;;4.30;92.07
47430;BME280;33181;49.246;7.372;2023-01-31T12:40:40;99681.66;;;4.34;91.95
47430;BME280;33181;49.246;7.372;2023-01-31T12:46:24;99666.72;;;4.39;91.72
47430;BME280;33181;49.246;7.372;2023-01-31T13:03:16;99664.72;;;4.66;90.68
47430;BME280;33181;49.246;7.372;2023-01-31T13:06:10;99663.75;;;4.69;90.82
47430;BME280;33181;49.246;7.372;2023-01-31T13:09:17;99652.41;;;4.70;90.57
47430;BME280;33181;49.246;7.372;2023-01-31T13:12:02;99656.66;;;4.72;91.00
47430;BME280;33181;49.246;7.372;2023-01-31T13:14:45;99647.16;;;4.71;90.34
47430;BME280;33181;49.246;7.372;2023-01-31T13:17:17;99648.97;;;4.69;90.49
47430;BME280;33181;49.246;7.372;2023-01-31T13:23:08;99638.19;;;4.58;91.18
47430;BME280;33181;49.246;7.372;2023-01-31T13:25:56;99628.94;;;4.51;92.20
47430;BME280;33181;49.246;7.372;2023-01-31T13:28:28;99640.22;;;4.51;92.03
47430;BME280;33181;49.246;7.372;2023-01-31T13:31:04;99646.25;;;4.52;92.50
47430;BME280;33181;49.246;7.372;2023-01-31T13:33:46;99642.72;;;4.53;92.85
47430;BME280;33181;49.246;7.372;2023-01-31T13:39:27;99636.69;;;4.52;92.24
47430;BME280;33181;49.246;7.372;2023-01-31T13:41:55;99618.34;;;4.55;92.50
47430;BME280;33181;49.246;7.372;2023-01-31T13:44:22;99620.94;;;4.55;92.70
47430;BME280;33181;49.246;7.372;2023-01-31T13:49:33;99599.28;;;4.55;92.64
47430;BME280;33181;49.246;7.372;2023-01-31T13:52:08;99588.75;;;4.58;92.42
47430;BME280;33181;49.246;7.372;2023-01-31T13:54:52;99585.56;;;4.51;92.87
47430;BME280;33181;49.246;7.372;2023-01-31T13:57:34;99581.25;;;4.50;93.10
47430;BME280;33181;49.246;7.372;2023-01-31T14:03:17;99601.94;;;4.53;93.58
47430;BME280;33181;49.246;7.372;2023-01-31T14:13:49;99606.25;;;4.54;93.14
47430;BME280;33181;49.246;7.372;2023-01-31T14:16:44;99606.19;;;4.56;93.54
47430;BME280;33181;49.246;7.372;2023-01-31T14:22:03;99609.44;;;4.61;93.44
47430;BME280;33181;49.246;7.372;2023-01-31T14:27:44;99631.09;;;4.61;93.88
47430;BME280;33181;49.246;7.372;2023-01-31T14:30:40;99631.81;;;4.65;93.75
47430;BME280;33181;49.246;7.372;2023-01-31T14:33:14;99627.28;;;4.70;93.03
47430;BME280;33181;49.246;7.372;2023-01-31T14:45:08;99614.09;;;4.53;94.76
47430;BME280;33181;49.246;7.372;2023-01-31T14:48:19;99609.56;;;4.58;94.46
47430;BME280;33181;49.246;7.372;2023-01-31T14:55:29;99611.50;;;4.53;94.47
47430;BME280;33181;49.246;7.372;2023-01-31T14:57:57;99623.88;;;4.48;95.12
47430;BME280;33181;49.246;7.372;2023-01-31T15:00:37;99623.09;;;4.46;96.22
47430;BME280;33181;49.246;7.372;2023-01-31T15:03:23;99623.13;;;4.44;96.24
47430;BME280;33181;49.246;7.372;2023-01-31T15:05:53;99633.16;;;4.33;97.81
47430;BME280;33181;49.246;7.372;2023-01-31T15:11:03;99642.75;;;4.31;99.68
47430;BME280;33181;49.246;7.372;2023-01-31T15:13:53;99648.69;;;4.34;99.81
47430;BME280;33181;49.246;7.372;2023-01-31T15:16:32;99640.28;;;4.28;100.00
47430;BME280;33181;49.246;7.372;2023-01-31T15:19:16;99640.16;;;4.31;100.00
47430;BME280;33181;49.246;7.372;2023-01-31T15:21:52;99648.69;;;4.34;100.00
47430;BME280;33181;49.246;7.372;2023-01-31T15:24:30;99657.75;;;4.24;100.00
47430;BME280;33181;49.246;7.372;2023-01-31T15:27:03;99659.94;;;4.35;100.00
47430;BME280;33181;49.246;7.372;2023-01-31T15:32:47;99652.53;;;4.26;100.00
47430;BME280;33181;49.246;7.372;2023-01-31T15:35:31;99661.34;;;4.22;100.00
47430;BME280;33181;49.246;7.372;2023-01-31T15:43:52;99645.84;;;4.18;100.00
47430;BME280;33181;49.246;7.372;2023-01-31T15:46:31;99652.66;;;4.23;100.00
47430;BME280;33181;49.246;7.372;2023-01-31T15:48:59;99647.59;;;4.18;100.00
47430;BME280;33181;49.246;7.372;2023-01-31T15:51:25;99650.03;;;4.23;100.00
47430;BME280;33181;49.246;7.372;2023-01-31T15:54:05;99642.88;;;4.28;100.00